Time;durP1;ratioP1;P1;durP2;ratioP2;P2;SDS_P1;SDS_P2;PMS_P1;PMS_P2;Temp;Humidity;BMP_temperature;BMP_pressure;BME280_temperature;BME280_humidity;BME280_pressure;Samples;Min_cycle;Max_cycle;Signal;HPM_P1;HPM_P2
2022/02/03 00:01:25;;;;;;;24.88;12.52;;;;;;;-1.71;100.00;99454.91;4987293;28;20061;-58
2022/02/03 00:04:15;;;;;;;25.75;12.75;;;;;;;-1.70;100.00;99443.72;4984335;28;20463;-57
2022/02/03 00:07:05;;;;;;;21.67;11.80;;;;;;;-2.00;100.00;99388.44;4985882;28;20069;-56
2022/02/03 00:10:33;;;;;;;24.15;11.73;;;;;;;-1.63;100.00;99448.19;4983214;28;20124;-58
2022/02/03 00:25:08;;;;;;;25.15;13.20;;;;;;;-1.90;100.00;99412.06;4985180;28;20516;-58
2022/02/03 00:28:05;;;;;;;;;;;;;;;-1.78;100.00;99424.47;4975159;28;20045;-62
2022/02/03 00:36:38;;;;;;;27.02;13.77;;;;;;;-2.23;100.00;99405.19;4973706;28;20060;-56
2022/02/03 00:51:29;;;;;;;29.90;14.23;;;;;;;-1.97;100.00;99449.09;4987787;28;20658;-54
2022/02/03 00:54:20;;;;;;;26.38;13.63;;;;;;;-2.15;100.00;99419.22;4985084;28;20109;-58
2022/02/03 00:57:08;;;;;;;26.60;13.35;;;;;;;-1.92;100.00;99460.50;4986542;28;20136;-61
2022/02/03 00:59:58;;;;;;;31.60;13.93;;;;;;;-2.02;100.00;99448.13;4990374;28;20188;-56
2022/02/03 01:02:48;;;;;;;27.13;12.45;;;;;;;-1.96;100.00;99461.28;4983923;28;20383;-58
2022/02/03 01:05:40;;;;;;;24.70;13.15;;;;;;;-1.97;100.00;99456.91;4984802;28;20049;-61
2022/02/03 01:08:26;;;;;;;27.75;13.82;;;;;;;-1.97;100.00;99467.28;4989117;28;20534;-55
2022/02/03 01:11:19;;;;;;;28.67;14.20;;;;;;;-2.08;100.00;99462.69;4978897;28;20076;-59
2022/02/03 01:14:13;;;;;;;26.23;13.23;;;;;;;-2.11;100.00;99470.41;4987282;28;20057;-55
2022/02/03 01:17:24;;;;;;;30.40;15.48;;;;;;;-2.38;100.00;99460.19;4985550;28;20050;-58
2022/02/03 01:20:46;;;;;;;28.00;14.35;;;;;;;-2.39;100.00;99453.25;4989130;28;20124;-55
2022/02/03 01:45:17;;;;;;;30.75;14.20;;;;;;;-1.97;100.00;99475.09;4927224;29;19981;-60
2022/02/03 01:54:30;;;;;;;33.25;14.70;;;;;;;-1.91;100.00;99469.16;4927903;29;20055;-56
2022/02/03 01:57:20;;;;;;;29.73;14.55;;;;;;;-2.03;100.00;99474.94;4915898;29;20082;-57
2022/02/03 02:00:15;;;;;;;31.35;14.35;;;;;;;-1.92;100.00;99475.22;4904701;29;20058;-57
2022/02/03 02:03:09;;;;;;;29.90;14.88;;;;;;;-1.96;100.00;99484.66;4941219;28;20101;-53
2022/02/03 02:06:04;;;;;;;29.42;14.68;;;;;;;-2.05;100.00;99487.00;4951661;28;20053;-54
2022/02/03 02:09:12;;;;;;;32.08;14.68;;;;;;;-1.93;100.00;99481.25;4956379;28;20089;-54
2022/02/03 02:12:49;;;;;;;33.97;14.40;;;;;;;-1.87;100.00;99481.38;4976905;28;20058;-57
2022/02/03 02:16:03;;;;;;;27.10;13.35;;;;;;;-2.14;100.00;99465.16;4983865;28;20100;-57
2022/02/03 02:38:08;;;;;;;33.88;14.05;;;;;;;-1.84;100.00;99476.28;4930971;29;20167;-62
2022/02/03 02:44:07;;;;;;;31.63;14.57;;;;;;;-2.06;100.00;99440.25;4942240;29;20481;-59
2022/02/03 02:46:54;;;;;;;33.42;14.68;;;;;;;-1.85;100.00;99491.00;4943496;29;20494;-56
2022/02/03 02:49:51;;;;;;;33.22;14.05;;;;;;;-1.74;100.00;99491.25;4944446;29;20154;-51
2022/02/03 02:52:46;;;;;;;35.97;15.15;;;;;;;-1.74;100.00;99491.25;4942816;29;20559;-56
2022/02/03 02:55:54;;;;;;;31.98;15.38;;;;;;;-1.77;100.00;99492.06;4951841;28;20081;-55
2022/02/03 03:02:18;;;;;;;33.63;15.13;;;;;;;-1.91;100.00;99496.03;4978776;28;20113;-57
2022/02/03 03:30:06;;;;;;;42.20;17.40;;;;;;;-2.19;100.00;99518.66;4975913;28;20053;-55
2022/02/03 03:33:12;;;;;;;39.33;16.35;;;;;;;-2.20;100.00;99519.50;4984040;28;20375;-57
2022/02/03 03:36:08;;;;;;;35.10;15.68;;;;;;;-2.27;100.00;99510.69;4979252;28;20128;-54
2022/02/03 03:38:55;;;;;;;40.47;17.02;;;;;;;-2.51;100.00;99471.13;4983552;28;20077;-59
2022/02/03 03:41:45;;;;;;;38.40;16.98;;;;;;;-2.24;100.00;99497.78;4965417;28;20061;-61
2022/02/03 03:44:34;;;;;;;37.10;16.10;;;;;;;-2.43;100.00;99503.34;4973646;28;20379;-57
2022/02/03 03:47:27;;;;;;;33.78;16.52;;;;;;;-2.32;100.00;99509.69;4967846;28;20127;-54
2022/02/03 03:50:17;;;;;;;39.58;17.30;;;;;;;-2.57;100.00;99514.19;4968794;28;20066;-60
2022/02/03 03:53:16;;;;;;;36.05;16.80;;;;;;;-2.53;100.00;99510.84;4969376;28;20085;-54
2022/02/03 03:56:14;;;;;;;34.33;16.00;;;;;;;-2.49;100.00;99523.91;4974032;28;20423;-52
2022/02/03 03:59:49;;;;;;;34.97;15.68;;;;;;;-2.48;100.00;99522.22;4985180;28;20120;-50
2022/02/03 04:29:27;;;;;;;37.78;16.45;;;;;;;-2.80;100.00;99521.34;4893932;29;20059;-51
2022/02/03 04:45:32;;;;;;;35.53;15.73;;;;;;;-2.57;100.00;99541.00;4896016;29;20078;-55
2022/02/03 05:05:12;;;;;;;37.60;18.02;;;;;;;-2.47;100.00;99557.72;4928853;29;20078;-57
2022/02/03 05:21:27;;;;;;;38.65;16.75;;;;;;;-2.62;100.00;99558.16;4933254;28;19986;-58
2022/02/03 05:44:24;;;;;;;37.80;18.70;;;;;;;-2.72;100.00;99543.19;4841077;29;20061;-65
2022/02/03 06:08:47;;;;;;;41.28;18.30;;;;;;;-2.86;100.00;99592.88;4766201;30;20443;-60
2022/02/03 06:14:52;;;;;;;42.70;19.48;;;;;;;-2.92;100.00;99592.72;4772109;30;20425;-63
2022/02/03 06:27:28;;;;;;;42.40;19.60;;;;;;;-2.66;100.00;99607.31;4940519;28;20590;-60
2022/02/03 06:30:19;;;;;;;42.72;19.52;;;;;;;-2.48;100.00;99606.16;4978016;28;20061;-62
2022/02/03 06:33:06;;;;;;;40.35;17.65;;;;;;;-2.55;100.00;99605.91;4982352;28;20053;-61
2022/02/03 06:35:51;;;;;;;43.75;18.20;;;;;;;-2.44;100.00;99605.41;4986475;28;20162;-63
2022/02/03 06:38:36;;;;;;;39.35;18.23;;;;;;;-2.34;100.00;99599.63;4965008;28;20057;-63
2022/02/03 06:41:22;;;;;;;43.03;18.05;;;;;;;-2.15;100.00;99607.06;4964585;28;20100;-69
2022/02/03 06:44:08;;;;;;;35.50;16.75;;;;;;;-2.11;100.00;99601.13;4971375;28;20529;-62
2022/02/03 06:46:56;;;;;;;35.40;16.38;;;;;;;-2.08;100.00;99603.81;4976749;28;20050;-60
2022/02/03 06:52:55;;;;;;;40.03;18.27;;;;;;;-2.37;100.00;99596.06;4975203;28;20077;-53
2022/02/03 06:55:47;;;;;;;36.15;17.00;;;;;;;-2.05;100.00;99596.09;4981015;28;20098;-54
2022/02/03 06:58:39;;;;;;;39.13;17.83;;;;;;;-1.78;100.00;99580.34;4985037;28;20185;-61
2022/02/03 07:01:32;;;;;;;38.58;18.63;;;;;;;-1.72;100.00;99593.50;4945792;28;20065;-65
2022/02/03 07:04:27;;;;;;;43.63;19.00;;;;;;;-1.57;100.00;99607.78;4960358;28;20529;-58
2022/02/03 07:07:16;;;;;;;37.45;19.95;;;;;;;-1.53;100.00;99603.50;4985456;28;20414;-58
2022/02/03 07:10:01;;;;;;;40.00;19.83;;;;;;;-1.26;100.00;99604.19;4983262;28;20065;-58
2022/02/03 07:12:47;;;;;;;43.28;22.42;;;;;;;-1.16;100.00;99611.34;4980099;28;20042;-57
2022/02/03 07:15:32;;;;;;;42.90;21.90;;;;;;;-1.18;100.00;99615.66;4975529;28;20092;-68
2022/02/03 07:18:17;;;;;;;;;;;;;;;-0.85;100.00;99625.09;4986775;28;20045;-62
2022/02/03 07:21:02;;;;;;;37.70;18.98;;;;;;;-0.83;100.00;99618.19;4983214;28;19973;-63
2022/02/03 07:23:49;;;;;;;39.67;19.25;;;;;;;-0.61;100.00;99623.03;4981181;28;20537;-62
2022/02/03 07:26:34;;;;;;;36.88;18.05;;;;;;;-0.49;100.00;99627.63;4976366;28;20201;-64
2022/02/03 07:29:18;;;;;;;36.95;18.17;;;;;;;-0.55;100.00;99622.28;4965231;28;20054;-60
2022/02/03 07:32:04;;;;;;;33.35;16.77;;;;;;;-0.57;100.00;99575.41;4981837;28;20622;-62
2022/02/03 07:34:53;;;;;;;35.47;17.80;;;;;;;-0.41;100.00;99623.44;4982457;28;20073;-71
2022/02/03 07:37:43;;;;;;;40.28;18.90;;;;;;;-0.74;100.00;99628.78;4969694;28;20470;-65
2022/02/03 07:40:28;;;;;;;39.40;18.52;;;;;;;-0.96;100.00;99602.28;4961078;28;20061;-62
2022/02/03 07:43:14;;;;;;;37.58;18.27;;;;;;;-0.81;100.00;99629.53;4986826;28;20545;-61
2022/02/03 07:45:59;;;;;;;37.70;18.33;;;;;;;-0.58;100.00;99643.94;4984947;28;20060;-62
2022/02/03 07:48:44;;;;;;;;;;;;;;;-0.57;100.00;99635.28;4985073;28;20053;-71
2022/02/03 07:51:29;;;;;;;42.40;19.50;;;;;;;-0.84;100.00;99642.47;4998742;28;20314;-61
2022/02/03 07:54:14;;;;;;;;;;;;;;;-0.40;100.00;99651.22;4987029;28;20132;-61
2022/02/03 07:57:00;;;;;;;40.13;19.88;;;;;;;-0.10;100.00;99644.94;4984347;28;20401;-64
2022/02/03 07:59:44;;;;;;;38.78;19.63;;;;;;;0.15;100.00;99653.25;4985579;28;20049;-61
2022/02/03 08:02:31;;;;;;;43.80;20.00;;;;;;;0.04;100.00;99660.88;4979641;28;20050;-64
2022/02/03 08:05:19;;;;;;;41.20;20.45;;;;;;;0.18;100.00;99648.94;4970876;28;20137;-61
2022/02/03 08:10:52;;;;;;;36.15;18.30;;;;;;;0.59;100.00;99641.88;4983597;28;20057;-60
2022/02/03 08:13:53;;;;;;;43.13;19.67;;;;;;;0.57;100.00;99610.56;4986008;28;20112;-61
2022/02/03 08:16:41;;;;;;;44.47;21.02;;;;;;;0.59;100.00;99652.31;4983923;28;20423;-62
2022/02/03 08:19:44;;;;;;;43.45;22.30;;;;;;;0.64;100.00;99646.34;4972188;28;20142;-64
2022/02/03 08:22:43;;;;;;;41.83;21.08;;;;;;;0.75;100.00;99644.75;4984695;28;20132;-59
2022/02/03 08:25:29;;;;;;;38.03;19.27;;;;;;;0.88;100.00;99630.19;4970640;28;20069;-60
2022/02/03 08:31:38;;;;;;;40.83;20.63;;;;;;;0.71;100.00;99645.56;4983987;28;20052;-64
2022/02/03 08:34:35;;;;;;;42.65;20.02;;;;;;;1.17;100.00;99649.78;4986337;28;20057;-62
2022/02/03 08:37:29;;;;;;;40.15;20.58;;;;;;;1.08;100.00;99633.97;4972175;28;20573;-62
2022/02/03 08:40:25;;;;;;;37.70;19.85;;;;;;;1.36;100.00;99636.13;4984342;28;20081;-61
2022/02/03 08:43:14;;;;;;;34.13;18.13;;;;;;;1.25;100.00;99650.78;4971651;28;20156;-66
2022/02/03 08:46:03;;;;;;;33.72;18.35;;;;;;;1.30;100.00;99650.00;4986756;28;20140;-63
2022/02/03 08:48:48;;;;;;;33.78;18.58;;;;;;;1.54;100.00;99646.88;4984753;28;20457;-65
2022/02/03 08:51:33;;;;;;;34.45;19.15;;;;;;;1.75;100.00;99657.59;4984424;28;20065;-62
2022/02/03 08:54:20;;;;;;;37.63;18.73;;;;;;;1.44;100.00;99655.41;4973321;28;20137;-62
2022/02/03 08:57:16;;;;;;;40.83;20.48;;;;;;;1.53;100.00;99663.38;4985083;28;20116;-64
2022/02/03 09:00:20;;;;;;;43.80;21.38;;;;;;;1.66;100.00;99654.84;4987432;28;20057;-59
2022/02/03 09:50:08;;;;;;;46.47;23.15;;;;;;;0.82;100.00;99648.38;4982759;28;20100;-60
2022/02/03 10:00:47;;;;;;;38.83;20.90;;;;;;;2.28;100.00;99659.09;4938238;28;20511;-62
2022/02/03 10:04:02;;;;;;;37.92;19.73;;;;;;;2.26;100.00;99645.13;4915139;29;20152;-63
2022/02/03 10:06:53;;;;;;;37.72;19.35;;;;;;;2.61;100.00;99649.00;4941955;28;20289;-63
2022/02/03 10:09:41;;;;;;;40.13;21.50;;;;;;;2.78;100.00;99643.03;4922667;29;20062;-60
2022/02/03 10:12:32;;;;;;;38.72;20.45;;;;;;;2.93;100.00;99640.53;4943348;28;20147;-62
2022/02/03 10:15:21;;;;;;;40.75;20.95;;;;;;;3.20;100.00;99645.09;4940386;28;20601;-63
2022/02/03 10:18:26;;;;;;;40.95;20.40;;;;;;;3.37;100.00;99648.72;4935508;28;20046;-64
2022/02/03 10:21:16;;;;;;;42.50;20.50;;;;;;;3.32;100.00;99604.16;4931900;29;20599;-62
2022/02/03 10:24:06;;;;;;;43.90;22.38;;;;;;;3.85;100.00;99644.66;4958483;28;20307;-62
2022/02/03 10:26:53;;;;;;;44.67;22.15;;;;;;;3.92;100.00;99635.91;4981650;28;20533;-65
2022/02/03 10:29:44;;;;;;;39.42;21.85;;;;;;;3.49;100.00;99641.78;4968280;28;20581;-63
2022/02/03 10:32:37;;;;;;;38.97;21.58;;;;;;;3.15;100.00;99641.56;4975884;28;20137;-60
2022/02/03 10:44:59;;;;;;;44.25;23.90;;;;;;;2.53;100.00;99642.81;4984079;28;20065;-59
2022/02/03 10:50:40;;;;;;;43.45;22.75;;;;;;;2.72;100.00;99644.72;4983542;28;20101;-61
2022/02/03 10:56:37;;;;;;;45.30;22.38;;;;;;;2.41;100.00;99638.31;4985736;28;20053;-60
2022/02/03 11:02:39;;;;;;;43.80;22.63;;;;;;;2.92;100.00;99650.97;4978619;28;20126;-63
2022/02/03 11:05:54;;;;;;;46.67;23.75;;;;;;;3.32;100.00;99655.69;4969465;28;20088;-67
2022/02/03 11:08:58;;;;;;;42.55;22.27;;;;;;;3.40;100.00;99654.84;4968619;28;20069;-68
2022/02/03 11:11:51;;;;;;;45.30;22.45;;;;;;;3.68;100.00;99653.28;4984994;28;20044;-63
2022/02/03 11:14:38;;;;;;;49.05;24.00;;;;;;;4.06;100.00;99647.34;4985061;28;20105;-63
2022/02/03 11:17:27;;;;;;;44.70;22.25;;;;;;;4.52;100.00;99662.34;4981331;28;20101;-61
2022/02/03 11:20:15;;;;;;;44.35;23.88;;;;;;;4.40;100.00;99666.69;4982593;28;20113;-62
2022/02/03 11:23:51;;;;;;;42.78;23.98;;;;;;;4.18;100.00;99670.13;4972136;28;20162;-61
2022/02/03 11:26:33;;;;;;;41.83;23.48;;;;;;;4.05;100.00;99670.94;4984082;28;20060;-61
2022/02/03 11:32:30;;;;;;;41.85;23.85;;;;;;;3.65;100.00;99664.59;4981873;28;20061;-66
2022/02/03 11:47:42;;;;;;;41.92;22.27;;;;;;;6.15;91.86;99673.63;4971106;28;20109;-64
2022/02/03 12:03:30;;;;;;;46.97;24.52;;;;;;;4.64;98.17;99661.50;4980332;28;20061;-60
2022/02/03 12:12:45;;;;;;;44.88;24.70;;;;;;;3.52;100.00;99644.44;4955849;28;20078;-63
2022/02/03 12:15:53;;;;;;;54.85;25.98;;;;;;;3.15;100.00;99647.69;4955692;28;20085;-62
2022/02/03 12:21:56;;;;;;;54.03;25.05;;;;;;;3.02;100.00;99650.22;4954261;28;20197;-62
2022/02/03 12:25:07;;;;;;;50.20;24.67;;;;;;;3.09;100.00;99645.03;4923371;28;20089;-62
2022/02/03 12:28:12;;;;;;;51.53;24.35;;;;;;;3.11;100.00;99638.06;4943085;28;20118;-60
2022/02/03 12:37:06;;;;;;;49.38;23.92;;;;;;;2.86;100.00;99670.16;4937319;28;20149;-65
2022/02/03 12:45:51;;;;;;;53.08;23.08;;;;;;;2.73;100.00;99643.88;4918745;29;20082;-67
2022/02/03 12:48:37;;;;;;;51.42;23.58;;;;;;;2.51;100.00;99654.97;4899629;29;20128;-61
2022/02/03 12:51:23;;;;;;;;;;;;;;;2.54;100.00;99657.63;4894515;29;20058;-63
2022/02/03 12:54:11;;;;;;;47.70;22.85;;;;;;;2.15;100.00;99660.72;4902497;29;20015;-63
2022/02/03 12:57:01;;;;;;;47.15;23.30;;;;;;;2.30;100.00;99658.25;4886802;29;21006;-64
2022/02/03 12:59:48;;;;;;;49.53;24.27;;;;;;;1.91;100.00;99654.31;4904922;29;20066;-65
2022/02/03 13:02:33;;;;;;;51.03;24.25;;;;;;;2.06;100.00;99659.72;4901432;29;20100;-62
2022/02/03 13:05:23;;;;;;;47.97;23.35;;;;;;;2.16;100.00;99665.06;4862716;29;20079;-62
2022/02/03 13:08:10;;;;;;;49.60;22.77;;;;;;;2.17;100.00;99661.59;4877621;29;20518;-61
2022/02/03 13:11:07;;;;;;;53.40;23.38;;;;;;;1.55;100.00;99664.28;4890794;29;20075;-64
2022/02/03 13:17:14;;;;;;;51.10;22.75;;;;;;;1.63;100.00;99654.81;4887898;29;20112;-66
2022/02/03 13:20:18;;;;;;;52.38;23.35;;;;;;;1.46;100.00;99623.22;4893194;29;20092;-68
2022/02/03 13:23:08;;;;;;;46.25;23.40;;;;;;;1.57;100.00;99659.94;4933711;28;20054;-60
2022/02/03 13:26:12;;;;;;;46.50;23.58;;;;;;;1.58;100.00;99654.75;4971153;28;20049;-62
2022/02/03 13:29:06;;;;;;;49.90;23.15;;;;;;;1.48;100.00;99658.09;4971421;28;20136;-63
2022/02/03 13:31:56;;;;;;;53.58;24.23;;;;;;;1.21;100.00;99612.41;4970756;28;20057;-66
2022/02/03 13:35:01;;;;;;;45.35;22.63;;;;;;;1.55;100.00;99666.91;4986089;28;20541;-62
2022/02/03 13:38:04;;;;;;;46.47;21.90;;;;;;;1.46;100.00;99641.50;4986915;28;20053;-63
2022/02/03 13:41:07;;;;;;;50.67;22.23;;;;;;;1.52;100.00;99653.78;4972920;28;20427;-60
2022/02/03 13:43:52;;;;;;;44.92;21.98;;;;;;;1.41;100.00;99656.25;4967995;28;20574;-62
2022/02/03 13:46:44;;;;;;;44.13;21.75;;;;;;;1.22;100.00;99661.19;4967613;28;20562;-63
2022/02/03 13:49:29;;;;;;;47.97;22.45;;;;;;;0.98;100.00;99658.22;4981225;28;20057;-64
2022/02/03 13:52:31;;;;;;;46.20;22.08;;;;;;;1.01;100.00;99653.91;4950894;28;20121;-64
2022/02/03 14:20:22;;;;;;;46.25;21.05;;;;;;;0.74;100.00;99637.78;4983888;28;20739;-61
2022/02/03 14:28:57;;;;;;;46.90;23.00;;;;;;;0.74;100.00;99661.28;4972678;28;20462;-63
2022/02/03 14:31:45;;;;;;;51.38;23.60;;;;;;;0.79;100.00;99672.66;4971895;28;20101;-64
2022/02/03 14:34:33;;;;;;;46.38;21.73;;;;;;;0.77;100.00;99681.31;4985361;28;20101;-62
2022/02/03 14:42:54;;;;;;;47.50;22.48;;;;;;;0.53;100.00;99653.09;4975857;28;20060;-61
2022/02/03 14:45:38;;;;;;;47.97;22.70;;;;;;;0.55;100.00;99677.44;4968256;28;20066;-66
2022/02/03 14:48:23;;;;;;;49.20;22.55;;;;;;;0.17;100.00;99632.44;4973904;28;20054;-62
2022/02/03 14:51:09;;;;;;;51.22;21.75;;;;;;;0.54;100.00;99686.13;4970513;28;20466;-63
2022/02/03 15:00:05;;;;;;;45.90;22.10;;;;;;;0.27;100.00;99693.44;4965803;28;20172;-62
2022/02/03 15:02:51;;;;;;;48.85;23.52;;;;;;;0.13;100.00;99693.16;4976808;28;20457;-63
2022/02/03 15:05:37;;;;;;;47.95;22.80;;;;;;;0.17;100.00;99690.63;4964939;28;20086;-60
2022/02/03 15:09:12;;;;;;;53.08;23.58;;;;;;;0.02;100.00;99678.19;4960992;28;20057;-63
2022/02/03 15:11:55;;;;;;;52.72;25.30;;;;;;;-0.16;100.00;99683.00;4979279;28;20077;-62
2022/02/03 15:14:41;;;;;;;49.07;24.63;;;;;;;0.00;100.00;99685.97;4985215;28;20065;-62
2022/02/03 15:17:26;;;;;;;55.38;25.08;;;;;;;0.16;100.00;99689.78;4947084;28;20300;-62
2022/02/03 15:20:11;;;;;;;57.72;24.77;;;;;;;0.15;100.00;99693.19;4977156;28;20303;-63
2022/02/03 15:22:56;;;;;;;;;;;;;;;0.20;100.00;99696.81;4983698;28;20139;-61
2022/02/03 15:25:40;;;;;;;52.30;24.00;;;;;;;-0.05;100.00;99679.78;4959145;28;20009;-62
2022/02/03 15:28:25;;;;;;;65.28;26.52;;;;;;;0.03;100.00;99692.09;4988297;28;20501;-66
2022/02/03 15:31:11;;;;;;;58.90;26.10;;;;;;;0.07;100.00;99680.88;4981182;28;20049;-64
2022/02/03 15:34:04;;;;;;;55.00;24.50;;;;;;;0.05;100.00;99686.06;4968710;28;20478;-62
2022/02/03 15:36:53;;;;;;;52.60;24.80;;;;;;;0.13;100.00;99687.09;4974527;28;20100;-62
2022/02/03 15:39:45;;;;;;;57.00;24.70;;;;;;;0.13;100.00;99687.09;4973538;28;20050;-62
2022/02/03 15:42:37;;;;;;;52.53;23.88;;;;;;;-0.22;100.00;99646.41;4986302;28;20085;-61
2022/02/03 15:45:22;;;;;;;57.08;23.55;;;;;;;0.05;100.00;99686.91;4974388;28;20050;-62
2022/02/03 16:03:38;;;;;;;49.80;21.05;;;;;;;-0.24;100.00;99689.78;4912082;29;20083;-68
2022/02/03 16:18:48;;;;;;;54.40;22.85;;;;;;;-0.56;100.00;99675.19;4888332;29;20520;-62
2022/02/03 16:22:23;;;;;;;50.33;22.20;;;;;;;-0.67;100.00;99693.16;4882915;29;20062;-60
2022/02/03 16:43:32;;;;;;;54.28;22.77;;;;;;;-0.27;100.00;99695.81;4897470;29;20164;-63
2022/02/03 16:55:35;;;;;;;49.65;21.77;;;;;;;-0.17;100.00;99692.56;4889150;29;20055;-61
2022/02/03 16:58:21;;;;;;;54.65;24.52;;;;;;;-0.45;100.00;99697.13;4890574;29;20140;-62
2022/02/03 17:01:06;;;;;;;56.83;23.70;;;;;;;-0.87;100.00;99701.38;4909886;29;20063;-61
2022/02/03 17:03:50;;;;;;;59.30;23.58;;;;;;;-0.79;100.00;99697.25;4894333;29;20058;-62
2022/02/03 17:06:35;;;;;;;56.35;23.17;;;;;;;-0.81;100.00;99693.69;4946430;28;20497;-60
2022/02/03 17:09:19;;;;;;;62.45;24.88;;;;;;;-0.97;100.00;99682.06;4958174;28;20155;-60
2022/02/03 17:12:06;;;;;;;51.05;22.90;;;;;;;-0.78;100.00;99692.03;4952109;28;20178;-66
2022/02/03 17:14:52;;;;;;;57.85;24.45;;;;;;;-0.77;100.00;99695.53;4945823;28;20069;-61
2022/02/03 17:17:37;;;;;;;63.00;24.05;;;;;;;-0.56;100.00;99690.81;4934436;28;20050;-63
2022/02/03 17:20:27;;;;;;;54.20;23.25;;;;;;;-0.48;100.00;99678.84;4960332;28;20687;-62
2022/02/03 17:23:15;;;;;;;58.53;23.08;;;;;;;-0.43;100.00;99688.50;4946345;29;20054;-62
2022/02/03 17:29:05;;;;;;;56.92;22.77;;;;;;;-0.25;100.00;99695.84;4957050;28;20475;-64
2022/02/03 18:12:00;;;;;;;49.30;22.65;;;;;;;-0.29;100.00;99681.88;4862668;29;20160;-60
2022/02/03 18:35:28;;;;;;;48.90;21.30;;;;;;;-0.92;100.00;99674.34;4874846;29;20148;-61
2022/02/03 18:53:18;;;;;;;53.00;20.98;;;;;;;-1.02;100.00;99662.84;4981715;28;20053;-61
2022/02/03 18:56:14;;;;;;;57.42;22.55;;;;;;;-1.02;100.00;99672.41;4974166;28;20417;-62
2022/02/03 19:14:27;;;;;;;55.38;21.83;;;;;;;-1.06;100.00;99673.16;4971996;28;20570;-61
2022/02/03 19:26:35;;;;;;;52.20;23.67;;;;;;;-1.01;100.00;99656.81;4972282;28;20072;-61
2022/02/03 19:56:05;;;;;;;52.47;22.17;;;;;;;-1.00;100.00;99668.97;4988182;28;20052;-61
2022/02/03 20:08:44;;;;;;;54.30;24.15;;;;;;;-1.15;100.00;99670.34;4900750;29;20535;-58
2022/02/03 20:11:28;;;;;;;55.05;23.33;;;;;;;-1.05;100.00;99674.91;4959609;28;20065;-57
2022/02/03 20:14:13;;;;;;;63.97;24.52;;;;;;;-1.03;100.00;99678.44;4960953;28;20569;-55
2022/02/03 20:16:58;;;;;;;59.45;24.35;;;;;;;-1.11;100.00;99667.84;4986298;28;20057;-56
2022/02/03 20:19:42;;;;;;;56.35;24.67;;;;;;;-0.98;100.00;99679.44;4989175;28;20081;-54
2022/02/03 20:22:32;;;;;;;60.78;25.15;;;;;;;-0.93;100.00;99670.00;4983807;28;20733;-64
2022/02/03 20:25:17;;;;;;;51.58;22.48;;;;;;;-0.83;100.00;99679.78;4980933;28;20053;-57
2022/02/03 20:28:04;;;;;;;52.70;22.65;;;;;;;-0.83;100.00;99680.66;4984412;28;20046;-56
2022/02/03 20:30:49;;;;;;;57.88;23.58;;;;;;;-0.81;100.00;99685.91;4951198;28;20120;-56
2022/02/03 20:33:36;;;;;;;58.97;24.13;;;;;;;-0.89;100.00;99674.44;4956976;28;20391;-57
2022/02/03 20:36:25;;;;;;;55.22;23.75;;;;;;;-0.76;100.00;99679.06;4976769;28;20060;-62
2022/02/03 20:39:10;;;;;;;56.70;23.90;;;;;;;-0.73;100.00;99674.81;4977067;28;20046;-57
2022/02/03 20:41:55;;;;;;;58.80;24.17;;;;;;;-0.63;100.00;99681.13;4982293;28;20062;-55
2022/02/03 20:44:40;;;;;;;57.03;23.80;;;;;;;-0.64;100.00;99672.44;4983454;28;20177;-55
2022/02/03 20:47:25;;;;;;;51.85;23.50;;;;;;;-0.73;100.00;99647.91;4974051;28;20120;-57
2022/02/03 20:50:19;;;;;;;57.88;23.85;;;;;;;-0.54;100.00;99669.19;4965362;28;20065;-60
2022/02/03 20:53:06;;;;;;;55.70;22.50;;;;;;;-0.40;100.00;99687.69;4979718;28;20053;-56
2022/02/03 20:55:51;;;;;;;57.20;22.95;;;;;;;-0.43;100.00;99685.03;4986017;28;20061;-60
2022/02/03 20:58:37;;;;;;;53.80;23.17;;;;;;;-0.46;100.00;99675.44;4987130;28;20057;-56
2022/02/03 21:01:27;;;;;;;52.90;23.52;;;;;;;-0.56;100.00;99680.38;4986537;28;20061;-63
2022/02/03 21:04:27;;;;;;;57.78;24.40;;;;;;;-0.64;100.00;99682.84;4983182;28;20061;-59
2022/02/03 21:07:11;;;;;;;60.00;24.13;;;;;;;-0.62;100.00;99688.97;4986873;28;20126;-55
2022/02/03 21:09:57;;;;;;;53.05;21.67;;;;;;;-0.63;100.00;99684.59;4982213;28;20477;-56
2022/02/03 21:12:43;;;;;;;50.08;22.02;;;;;;;-0.87;100.00;99685.78;4982288;28;20463;-64
2022/02/03 21:15:36;;;;;;;51.05;23.10;;;;;;;-1.03;100.00;99655.88;4983577;28;20108;-56
2022/02/03 21:18:24;;;;;;;48.28;21.35;;;;;;;-0.79;100.00;99679.88;4971613;28;20057;-55
2022/02/03 21:21:11;;;;;;;50.47;21.88;;;;;;;-0.65;100.00;99688.91;4981983;28;20093;-60
2022/02/03 21:23:57;;;;;;;54.35;22.05;;;;;;;-0.64;100.00;99682.84;4970392;28;20057;-64
2022/02/03 21:26:41;;;;;;;;;;;;;;;-0.68;100.00;99685.31;4984619;28;20100;-58
2022/02/03 21:29:29;;;;;;;47.83;22.35;;;;;;;-0.77;100.00;99692.94;4983681;28;19976;-59
2022/02/03 21:32:15;;;;;;;51.42;21.88;;;;;;;-0.67;100.00;99694.91;4969829;28;20116;-61
2022/02/03 21:35:00;;;;;;;49.92;22.10;;;;;;;-0.71;100.00;99701.75;4986230;28;20104;-61
2022/02/03 21:37:45;;;;;;;52.08;22.48;;;;;;;-0.88;100.00;99700.50;4984544;28;20124;-62
2022/02/03 21:40:30;;;;;;;43.35;19.60;;;;;;;-0.81;100.00;99699.81;4985514;28;20064;-61
2022/02/03 21:43:15;;;;;;;48.92;21.40;;;;;;;-0.73;100.00;99693.06;4982851;28;20541;-57
2022/02/03 21:46:01;;;;;;;47.35;20.27;;;;;;;-0.66;100.00;99684.50;4981498;28;20057;-58
2022/02/03 21:48:49;;;;;;;46.65;19.75;;;;;;;-0.53;100.00;99691.78;4974162;28;20101;-58
2022/02/03 21:51:40;;;;;;;47.88;20.83;;;;;;;-0.60;100.00;99687.28;4972567;28;20119;-59
2022/02/03 21:54:25;;;;;;;48.28;21.08;;;;;;;-0.75;100.00;99681.72;4983224;28;20054;-60
2022/02/03 21:57:10;;;;;;;46.22;20.38;;;;;;;-0.89;100.00;99641.50;4983607;28;20061;-58
2022/02/03 21:59:56;;;;;;;45.55;19.27;;;;;;;-0.65;100.00;99691.50;4974982;28;20116;-54
2022/02/03 22:02:43;;;;;;;43.65;19.50;;;;;;;-0.64;100.00;99688.03;4975023;28;20080;-63
2022/02/03 22:05:32;;;;;;;41.95;18.58;;;;;;;-0.67;100.00;99687.97;4985638;28;20081;-58
2022/02/03 22:08:18;;;;;;;39.38;18.15;;;;;;;-0.64;100.00;99693.25;4966359;28;20090;-63
2022/02/03 22:11:03;;;;;;;39.83;18.42;;;;;;;-0.55;100.00;99695.19;4972806;28;20060;-62
2022/02/03 22:13:49;;;;;;;43.88;19.20;;;;;;;-0.52;100.00;99685.72;4980057;28;20061;-58
2022/02/03 22:16:36;;;;;;;41.53;19.13;;;;;;;-0.50;100.00;99680.53;4974251;28;20200;-58
2022/02/03 22:19:21;;;;;;;44.67;19.08;;;;;;;-0.53;100.00;99670.94;4963155;28;20089;-60
2022/02/03 22:22:37;;;;;;;45.00;21.23;;;;;;;-0.44;100.00;99675.44;4976117;28;20054;-62
2022/02/03 22:28:37;;;;;;;52.33;23.88;;;;;;;-1.04;100.00;99563.09;4982200;28;20053;-62
2022/02/03 22:38:37;;;;;;;59.17;23.67;;;;;;;-0.44;100.00;99675.44;4984162;28;20233;-62
2022/02/03 22:44:02;;;;;;;53.47;23.23;;;;;;;-0.41;100.00;99666.00;4977032;28;20455;-54
2022/02/03 22:49:52;;;;;;;49.58;21.83;;;;;;;-0.33;100.00;99666.16;4934529;29;20555;-51
2022/02/03 22:52:42;;;;;;;53.30;23.80;;;;;;;-0.21;100.00;99669.00;4926810;29;20106;-55
2022/02/03 22:55:27;;;;;;;53.00;23.25;;;;;;;-0.19;100.00;99669.94;4921336;29;20429;-58
2022/02/03 23:01:15;;;;;;;56.08;24.60;;;;;;;-0.19;100.00;99667.34;4931487;29;20105;-59
2022/02/03 23:04:00;;;;;;;59.53;23.17;;;;;;;-0.18;100.00;99664.75;4929058;29;20054;-61
2022/02/03 23:06:45;;;;;;;57.97;23.73;;;;;;;-0.15;100.00;99662.19;4943311;29;20090;-58
2022/02/03 23:09:49;;;;;;;58.03;22.42;;;;;;;-0.07;100.00;99660.63;4935861;29;20093;-58
2022/02/03 23:12:54;;;;;;;52.30;22.90;;;;;;;-0.12;100.00;99653.56;4940167;29;20233;-59
2022/02/03 23:19:01;;;;;;;50.85;21.80;;;;;;;-0.08;100.00;99671.91;4942097;29;20114;-58
2022/02/03 23:24:22;;;;;;;53.58;22.30;;;;;;;-0.10;100.00;99668.41;4934082;29;20516;-59
2022/02/03 23:30:19;;;;;;;52.63;21.88;;;;;;;0.03;100.00;99679.06;4907237;29;20535;-57
2022/02/03 23:33:04;;;;;;;55.40;23.02;;;;;;;-0.09;100.00;99659.72;4893137;29;20521;-58
2022/02/03 23:35:49;;;;;;;52.90;21.85;;;;;;;0.05;100.00;99668.69;4909283;29;20500;-58
2022/02/03 23:38:52;;;;;;;58.03;22.98;;;;;;;0.03;100.00;99672.09;4909717;29;20104;-59